createdAt,value
2023-02-18T00:00:53.247Z,9.668047
2023-02-18T00:01:53.235Z,9.668038
2023-02-18T00:02:53.277Z,9.668011
2023-02-18T00:03:53.361Z,9.667999
2023-02-18T00:04:53.229Z,9.668006
2023-02-18T00:05:53.224Z,9.668037
2023-02-18T00:06:53.204Z,9.668061
2023-02-18T00:07:53.237Z,9.668050
2023-02-18T00:08:53.223Z,9.668081
2023-02-18T00:09:53.202Z,9.668094
2023-02-18T00:10:53.209Z,9.668069
2023-02-18T00:11:53.205Z,9.668102
2023-02-18T00:12:53.168Z,9.668116
2023-02-18T00:13:53.173Z,9.668054
2023-02-18T00:14:53.145Z,9.668035
2023-02-18T00:15:53.201Z,9.667932
2023-02-18T00:16:53.227Z,9.667956
2023-02-18T00:17:53.130Z,9.668017
2023-02-18T00:18:53.120Z,9.668053
2023-02-18T00:19:53.119Z,9.668000
2023-02-18T00:20:53.122Z,9.667943
2023-02-18T00:21:53.097Z,9.667977
2023-02-18T00:22:53.071Z,9.668049
2023-02-18T00:23:53.108Z,9.668007
2023-02-18T00:24:53.175Z,9.667970
2023-02-18T00:25:53.082Z,9.667966
2023-02-18T00:26:53.180Z,9.668044
2023-02-18T00:27:53.040Z,9.668000
2023-02-18T00:28:53.077Z,9.667990
2023-02-18T00:33:12.835Z,9.667993
2023-02-18T00:34:12.801Z,9.668084
2023-02-18T00:35:12.763Z,9.667995
2023-02-18T00:36:12.878Z,9.667974
2023-02-18T00:37:12.784Z,9.667934
2023-02-18T00:38:12.840Z,9.667986
2023-02-18T00:39:12.813Z,9.667953
2023-02-18T00:40:12.737Z,9.668023
2023-02-18T00:41:12.725Z,9.667954
2023-02-18T00:42:12.718Z,9.667990
2023-02-18T00:43:44.605Z,9.668012
2023-02-18T00:44:12.717Z,9.667939
2023-02-18T00:45:12.685Z,9.667957
2023-02-18T00:46:13.679Z,9.667922
2023-02-18T00:47:12.695Z,9.667885
2023-02-18T00:48:13.366Z,9.667940
2023-02-18T00:49:12.831Z,9.667939
2023-02-18T00:50:12.735Z,9.667949
2023-02-18T00:51:13.607Z,9.667953
2023-02-18T00:52:13.608Z,9.667979
2023-02-18T00:53:12.653Z,9.667991
2023-02-18T00:54:45.035Z,9.667951
2023-02-18T00:55:44.656Z,9.667870
2023-02-18T00:56:12.689Z,9.667907
2023-02-18T00:57:12.607Z,9.667949
2023-02-18T00:58:12.662Z,9.667979
2023-02-18T00:59:12.639Z,9.667991
2023-02-18T01:00:12.629Z,9.667959
2023-02-18T01:01:12.667Z,9.667973
2023-02-18T01:02:44.491Z,9.668025
2023-02-18T01:03:12.590Z,9.667974
2023-02-18T01:04:12.552Z,9.667956
2023-02-18T01:05:12.567Z,9.667966
2023-02-18T01:06:12.512Z,9.667982
2023-02-18T01:07:12.534Z,9.667957
2023-02-18T01:08:12.543Z,9.667950
2023-02-18T01:09:44.448Z,9.667960
2023-02-18T01:15:43.230Z,9.667589
2023-02-18T01:16:11.679Z,9.667633
2023-02-18T01:17:43.667Z,9.667670
2023-02-18T01:18:11.251Z,9.667855
2023-02-18T01:19:43.118Z,9.667877
2023-02-18T01:20:11.228Z,9.667892
2023-02-18T01:21:43.145Z,9.667923
2023-02-18T01:22:11.192Z,9.668023
2023-02-18T01:23:11.203Z,9.667970
2023-02-18T01:24:11.212Z,9.667982
2023-02-18T01:25:11.201Z,9.667991
2023-02-18T01:26:11.539Z,9.668017
2023-02-18T01:27:11.180Z,9.668015
2023-02-18T01:28:11.175Z,9.668106
2023-02-18T01:29:11.133Z,9.668092
2023-02-18T01:30:11.197Z,9.668091
2023-02-18T01:31:11.265Z,9.668092
2023-02-18T01:32:11.202Z,9.668139
2023-02-18T01:33:11.233Z,9.668088
2023-02-18T01:34:11.116Z,9.668062
2023-02-18T01:35:11.079Z,9.668079
2023-02-18T01:36:11.343Z,9.668006
2023-02-18T01:37:11.082Z,9.668008
2023-02-18T01:38:11.070Z,9.668047
2023-02-18T01:39:11.079Z,9.668045
2023-02-18T01:40:11.026Z,9.667993
2023-02-18T01:41:11.061Z,9.668050
2023-02-18T01:42:11.031Z,9.668051
2023-02-18T01:43:11.071Z,9.668007
2023-02-18T01:44:11.024Z,9.668035
2023-02-18T01:45:11.001Z,9.668049
2023-02-18T01:46:11.236Z,9.668030
2023-02-18T01:47:10.980Z,9.668062
2023-02-18T01:48:11.007Z,9.668030
2023-02-18T01:49:10.972Z,9.668063
2023-02-18T01:50:10.949Z,9.668068
2023-02-18T01:51:10.942Z,9.668039
2023-02-18T01:52:11.003Z,9.668035
2023-02-18T01:53:10.934Z,9.668061
2023-02-18T01:54:10.952Z,9.668028
2023-02-18T01:55:10.936Z,9.668027
2023-02-18T01:56:10.929Z,9.668017
2023-02-18T01:57:10.935Z,9.668036
2023-02-18T01:58:11.200Z,9.668097
2023-02-18T01:59:10.930Z,9.668105
2023-02-18T02:00:10.904Z,9.668138
2023-02-18T02:01:10.964Z,9.668090
2023-02-18T02:02:10.916Z,9.668016
2023-02-18T02:03:10.884Z,9.668018
2023-02-18T02:04:10.887Z,9.668019
2023-02-18T02:05:10.915Z,9.668025
2023-02-18T02:06:10.831Z,9.667985
2023-02-18T02:07:10.832Z,9.667987
2023-02-18T02:08:10.829Z,9.667993
2023-02-18T02:09:10.860Z,9.668013
2023-02-18T02:10:10.796Z,9.668021
2023-02-18T02:11:10.787Z,9.667997
2023-02-18T02:12:10.811Z,9.667971
2023-02-18T02:13:10.801Z,9.668009
2023-02-18T02:14:10.809Z,9.668019
2023-02-18T02:15:10.765Z,9.667994
2023-02-18T02:16:11.093Z,9.667953
2023-02-18T02:17:10.780Z,9.668032
2023-02-18T02:18:10.733Z,9.668016
2023-02-18T02:19:10.718Z,9.667960
2023-02-18T02:20:10.807Z,9.667985
2023-02-18T02:21:10.718Z,9.667962
2023-02-18T02:22:10.717Z,9.668095
2023-02-18T02:23:10.739Z,9.668076
2023-02-18T02:24:10.784Z,9.668133
2023-02-18T02:25:10.702Z,9.668144
2023-02-18T02:26:10.679Z,9.668118
2023-02-18T02:27:10.696Z,9.668069
2023-02-18T02:28:10.671Z,9.668089
2023-02-18T02:29:10.670Z,9.668075
2023-02-18T02:30:10.648Z,9.668028
2023-02-18T02:31:10.724Z,9.668063
2023-02-18T02:32:10.647Z,9.668115
2023-02-18T02:33:10.623Z,9.668066
2023-02-18T02:34:10.619Z,9.668098
2023-02-18T02:35:10.614Z,9.668098
2023-02-18T02:36:10.634Z,9.668140
2023-02-18T02:37:10.709Z,9.668171
2023-02-18T02:38:10.672Z,9.668148
2023-02-18T02:39:10.578Z,9.668134
2023-02-18T02:40:10.570Z,9.668054
2023-02-18T02:41:10.594Z,9.668129
2023-02-18T02:42:10.622Z,9.668051
2023-02-18T02:43:10.576Z,9.668027
2023-02-18T02:44:10.596Z,9.667995
2023-02-18T02:45:10.574Z,9.668068
2023-02-18T02:46:11.171Z,9.668094
2023-02-18T02:47:10.543Z,9.668027
2023-02-18T02:48:10.562Z,9.668126
2023-02-18T02:49:10.597Z,9.668097
2023-02-18T02:50:10.518Z,9.668048
2023-02-18T02:51:10.512Z,9.668097
2023-02-18T02:52:10.503Z,9.668107
2023-02-18T02:53:10.503Z,9.668076
2023-02-18T02:54:10.543Z,9.668118
2023-02-18T02:55:10.488Z,9.668105
2023-02-18T02:56:10.624Z,9.668067
2023-02-18T02:57:10.478Z,9.668009
2023-02-18T02:58:10.463Z,9.668004
2023-02-18T02:59:10.473Z,9.668109
2023-02-18T03:00:10.490Z,9.668059
2023-02-18T03:01:10.447Z,9.668069
2023-02-18T03:02:10.469Z,9.668050
2023-02-18T03:03:10.451Z,9.668077
2023-02-18T03:04:10.425Z,9.668093
2023-02-18T03:05:10.416Z,9.668076
2023-02-18T03:06:10.439Z,9.668057
2023-02-18T03:07:10.399Z,9.668040
2023-02-18T03:08:10.347Z,9.668052
2023-02-18T03:09:10.373Z,9.668054
2023-02-18T03:10:10.369Z,9.668075
2023-02-18T03:11:10.341Z,9.668135
2023-02-18T03:12:10.362Z,9.668096
2023-02-18T03:13:10.326Z,9.668063
2023-02-18T03:14:10.294Z,9.668064
2023-02-18T03:15:10.345Z,9.668077
2023-02-18T03:16:10.663Z,9.668082
2023-02-18T03:17:10.309Z,9.668056
2023-02-18T03:18:10.271Z,9.668069
2023-02-18T03:19:10.251Z,9.668090
2023-02-18T03:20:10.270Z,9.668055
2023-02-18T03:21:10.281Z,9.668081
2023-02-18T03:22:10.265Z,9.668129
2023-02-18T03:23:10.239Z,9.668078
2023-02-18T03:24:10.237Z,9.668021
2023-02-18T03:25:10.298Z,9.668051
2023-02-18T03:26:10.535Z,9.668049
2023-02-18T03:27:10.281Z,9.668085
2023-02-18T03:28:10.217Z,9.668065
2023-02-18T03:29:10.193Z,9.668078
2023-02-18T03:30:10.289Z,9.668086
2023-02-18T03:31:10.263Z,9.668082
2023-02-18T03:32:10.318Z,9.668064
2023-02-18T03:33:10.183Z,9.668076
2023-02-18T03:34:10.225Z,9.668095
2023-02-18T03:35:10.152Z,9.668064
2023-02-18T03:36:10.433Z,9.668077
2023-02-18T03:37:10.135Z,9.668077
2023-02-18T03:38:10.144Z,9.668093
2023-02-18T03:39:10.148Z,9.668079
2023-02-18T03:40:10.141Z,9.668086
2023-02-18T03:41:10.132Z,9.668077
2023-02-18T03:42:10.102Z,9.668050
2023-02-18T03:43:10.118Z,9.668039
2023-02-18T03:44:10.108Z,9.668071
2023-02-18T03:45:10.075Z,9.668076
2023-02-18T03:46:42.002Z,9.668069
2023-02-18T04:07:01.183Z,9.668040
2023-02-18T04:08:01.106Z,9.667983
2023-02-18T04:09:01.078Z,9.668073
2023-02-18T04:10:01.089Z,9.668065
2023-02-18T04:11:01.117Z,9.668049
2023-02-18T04:12:01.085Z,9.667994
2023-02-18T04:13:01.090Z,9.668100
2023-02-18T04:14:01.078Z,9.668039
2023-02-18T04:15:02.034Z,9.668032
2023-02-18T04:16:01.042Z,9.668036
2023-02-18T04:17:01.669Z,9.668000
2023-02-18T04:18:01.006Z,9.668034
2023-02-18T04:19:01.006Z,9.668038
2023-02-18T04:20:01.232Z,9.668055
2023-02-18T04:21:00.977Z,9.668018
2023-02-18T04:22:00.965Z,9.668038
2023-02-18T04:23:00.990Z,9.668072
2023-02-18T04:24:01.006Z,9.668052
2023-02-18T04:25:00.953Z,9.668071
2023-02-18T04:26:00.950Z,9.668079
2023-02-18T04:27:00.926Z,9.668061
2023-02-18T04:28:00.947Z,9.668057
2023-02-18T04:29:00.922Z,9.668087
2023-02-18T04:30:01.031Z,9.668015
2023-02-18T04:31:00.992Z,9.668060
2023-02-18T04:32:00.961Z,9.668089
2023-02-18T04:33:00.890Z,9.668083
2023-02-18T04:34:00.884Z,9.668052
2023-02-18T04:35:00.894Z,9.668010
2023-02-18T04:36:00.914Z,9.668013
2023-02-18T04:37:00.875Z,9.668034
2023-02-18T04:38:00.871Z,9.668033
2023-02-18T04:39:00.875Z,9.668010
2023-02-18T04:40:00.946Z,9.668056
2023-02-18T04:41:00.900Z,9.668053
2023-02-18T04:42:00.872Z,9.668037
2023-02-18T04:43:00.880Z,9.668045
2023-02-18T04:44:00.858Z,9.668049
2023-02-18T04:45:00.811Z,9.668062
2023-02-18T04:46:00.870Z,9.668045
2023-02-18T04:47:00.798Z,9.667994
2023-02-18T04:48:00.794Z,9.668015
2023-02-18T04:49:00.790Z,9.667987
2023-02-18T04:50:00.785Z,9.667974
2023-02-18T04:51:00.783Z,9.668038
2023-02-18T04:52:00.766Z,9.668038
2023-02-18T04:53:00.743Z,9.667996
2023-02-18T04:54:00.787Z,9.668034
2023-02-18T04:55:00.782Z,9.668006
2023-02-18T04:56:00.745Z,9.668023
2023-02-18T04:57:00.771Z,9.668036
2023-02-18T04:58:00.731Z,9.668016
2023-02-18T04:59:00.701Z,9.667952
2023-02-18T05:00:00.689Z,9.667995
2023-02-18T05:01:00.764Z,9.668001
2023-02-18T05:02:00.661Z,9.668012
2023-02-18T05:03:01.529Z,9.668071
2023-02-18T05:04:00.706Z,9.667973
2023-02-18T05:05:00.661Z,9.668012
2023-02-18T05:06:00.631Z,9.667974
2023-02-18T05:07:00.629Z,9.668035
2023-02-18T05:08:00.642Z,9.667984
2023-02-18T05:09:00.649Z,9.667979
2023-02-18T05:10:00.620Z,9.667991
2023-02-18T05:11:00.627Z,9.668105
2023-02-18T05:12:00.601Z,9.668061
2023-02-18T05:13:00.604Z,9.667908
2023-02-18T05:14:00.628Z,9.667967
2023-02-18T05:15:00.588Z,9.667940
2023-02-18T05:16:00.680Z,9.667947
2023-02-18T05:17:00.569Z,9.668022
2023-02-18T05:18:00.535Z,9.667953
2023-02-18T05:19:00.577Z,9.668006
2023-02-18T05:20:00.548Z,9.668038
2023-02-18T05:21:00.537Z,9.668002
2023-02-18T05:22:00.511Z,9.668019
2023-02-18T05:23:00.526Z,9.668011
2023-02-18T05:24:00.528Z,9.668033
2023-02-18T05:25:00.515Z,9.668021
2023-02-18T05:26:00.489Z,9.668003
2023-02-18T05:27:00.489Z,9.668030
2023-02-18T05:28:00.484Z,9.668001
2023-02-18T05:29:00.457Z,9.668023
2023-02-18T05:30:00.528Z,9.668016
2023-02-18T05:31:00.550Z,9.668024
2023-02-18T05:32:00.557Z,9.668052
2023-02-18T05:33:00.444Z,9.668009
2023-02-18T05:34:00.457Z,9.667977
2023-02-18T05:35:00.433Z,9.667965
2023-02-18T05:36:00.495Z,9.667982
2023-02-18T05:37:00.429Z,9.667974
2023-02-18T05:38:00.422Z,9.667929
2023-02-18T05:39:00.462Z,9.667949
2023-02-18T05:40:00.383Z,9.667951
2023-02-18T05:41:00.377Z,9.667996
2023-02-18T05:42:00.426Z,9.667993
2023-02-18T05:43:00.364Z,9.667979
2023-02-18T05:44:00.410Z,9.668007
2023-02-18T05:45:00.350Z,9.667976
2023-02-18T05:46:00.497Z,9.667920
2023-02-18T05:47:00.345Z,9.667964
2023-02-18T05:48:00.338Z,9.667963
2023-02-18T05:49:00.342Z,9.667966
2023-02-18T05:50:00.302Z,9.667963
2023-02-18T05:51:00.314Z,9.668035
2023-02-18T05:52:00.303Z,9.667977
2023-02-18T05:53:00.288Z,9.667958
2023-02-18T05:54:00.344Z,9.667945
2023-02-18T05:55:00.264Z,9.667866
2023-02-18T05:56:00.254Z,9.667974
2023-02-18T05:57:00.327Z,9.667862
2023-02-18T05:58:00.275Z,9.667776
2023-02-18T05:59:00.326Z,9.667900
2023-02-18T06:00:00.466Z,9.667718
2023-02-18T06:01:01.268Z,9.667797
2023-02-18T06:02:00.198Z,9.667638
2023-02-18T06:03:00.331Z,9.667682
2023-02-18T06:04:00.197Z,9.667750
2023-02-18T06:05:00.233Z,9.667814
2023-02-18T06:06:00.258Z,9.667805
2023-02-18T06:07:00.165Z,9.667757
2023-02-18T06:08:00.212Z,9.667852
2023-02-18T06:09:00.162Z,9.667875
2023-02-18T06:10:00.262Z,9.667978
2023-02-18T06:11:00.153Z,9.667907
2023-02-18T06:12:00.134Z,9.667824
2023-02-18T06:13:00.162Z,9.667912
2023-02-18T06:14:00.112Z,9.667903
2023-02-18T06:15:00.175Z,9.667882
2023-02-18T06:16:00.139Z,9.667905
2023-02-18T06:17:00.111Z,9.667965
2023-02-18T06:18:00.261Z,9.667943
2023-02-18T06:19:00.134Z,9.667971
2023-02-18T06:20:00.074Z,9.667993
2023-02-18T06:21:04.149Z,9.668001
2023-02-18T06:22:00.051Z,9.667986
2023-02-18T06:23:00.021Z,9.667958
2023-02-18T06:24:00.078Z,9.667988
2023-02-18T06:25:00.017Z,9.667966
2023-02-18T06:26:00.057Z,9.667945
2023-02-18T06:27:00.058Z,9.667973
2023-02-18T06:28:00.002Z,9.667961
2023-02-18T06:29:00.013Z,9.667968
2023-02-18T06:30:31.918Z,9.667959
2023-02-18T06:31:00.121Z,9.667957
2023-02-18T06:32:00.206Z,9.667938
2023-02-18T06:32:59.941Z,9.667925
2023-02-18T06:33:59.981Z,9.667966
2023-02-18T06:34:59.915Z,9.667970
2023-02-18T06:35:59.919Z,9.667968
2023-02-18T06:37:01.302Z,9.667929
2023-02-18T06:38:00.910Z,9.667949
2023-02-18T06:38:59.896Z,9.667995
2023-02-18T06:39:59.912Z,9.667998
2023-02-18T06:40:59.886Z,9.667952
2023-02-18T06:41:59.897Z,9.667953
2023-02-18T06:42:59.872Z,9.667941
2023-02-18T06:44:00.585Z,9.667952
2023-02-18T06:45:00.748Z,9.667935
2023-02-18T06:45:59.846Z,9.667916
2023-02-18T06:46:59.869Z,9.667931
2023-02-18T06:47:59.894Z,9.667948
2023-02-18T06:48:59.813Z,9.668000
2023-02-18T06:49:59.806Z,9.667942
2023-02-18T06:50:59.797Z,9.667957
2023-02-18T06:51:59.897Z,9.667973
2023-02-18T06:52:59.829Z,9.667908
2023-02-18T06:53:59.794Z,9.667880
2023-02-18T06:54:59.768Z,9.667926
2023-02-18T06:55:59.750Z,9.667912
2023-02-18T06:56:59.784Z,9.667920
2023-02-18T06:57:59.755Z,9.667928
2023-02-18T06:58:59.813Z,9.667910
2023-02-18T06:59:59.722Z,9.667996
2023-02-18T07:00:59.738Z,9.667953
2023-02-18T07:01:59.719Z,9.667932
2023-02-18T07:02:59.729Z,9.667931
2023-02-18T07:03:59.819Z,9.667961
2023-02-18T07:04:59.728Z,9.667972
2023-02-18T07:05:59.680Z,9.667923
2023-02-18T07:06:59.687Z,9.667924
2023-02-18T07:07:59.657Z,9.667955
2023-02-18T07:08:59.689Z,9.667964
2023-02-18T07:09:59.652Z,9.667985
2023-02-18T07:10:59.671Z,9.667985
2023-02-18T07:11:59.634Z,9.667954
2023-02-18T07:12:59.630Z,9.667918
2023-02-18T07:13:59.644Z,9.667977
2023-02-18T07:14:59.634Z,9.667958
2023-02-18T07:15:59.688Z,9.667941
2023-02-18T07:16:59.608Z,9.667958
2023-02-18T07:17:59.591Z,9.667939
2023-02-18T07:18:59.589Z,9.667960
2023-02-18T07:19:59.630Z,9.667974
2023-02-18T07:20:59.585Z,9.668004
2023-02-18T07:21:59.566Z,9.667981
2023-02-18T07:22:59.552Z,9.667945
2023-02-18T07:23:59.553Z,9.667917
2023-02-18T07:24:59.557Z,9.667979
2023-02-18T07:25:59.815Z,9.667967
2023-02-18T07:27:00.134Z,9.667994
2023-02-18T07:27:59.512Z,9.667992
2023-02-18T07:28:59.551Z,9.667979
2023-02-18T07:29:59.514Z,9.667995
2023-02-18T07:30:59.567Z,9.667994
2023-02-18T07:31:59.547Z,9.667990
2023-02-18T07:32:59.479Z,9.667976
2023-02-18T07:33:59.458Z,9.667991
2023-02-18T07:34:59.459Z,9.667990
2023-02-18T07:35:59.471Z,9.667923
2023-02-18T07:37:00.224Z,9.667938
2023-02-18T07:37:59.468Z,9.667952
2023-02-18T07:38:59.416Z,9.667962
2023-02-18T07:39:59.429Z,9.668002
2023-02-18T07:40:59.415Z,9.667938
2023-02-18T07:41:59.424Z,9.667976
2023-02-18T07:42:59.434Z,9.667899
2023-02-18T07:43:59.397Z,9.667950
2023-02-18T07:44:59.400Z,9.667942
2023-02-18T07:45:59.434Z,9.667924
2023-02-18T07:46:59.371Z,9.668002
2023-02-18T07:47:59.385Z,9.667970
2023-02-18T07:48:59.362Z,9.667935
2023-02-18T07:49:59.348Z,9.668013
2023-02-18T07:50:59.338Z,9.667988
2023-02-18T07:51:59.364Z,9.667916
2023-02-18T07:52:59.377Z,9.667960
2023-02-18T07:53:59.337Z,9.667905
2023-02-18T07:54:59.322Z,9.667942
2023-02-18T07:55:59.329Z,9.667922
2023-02-18T07:56:59.281Z,9.667923
2023-02-18T07:57:59.304Z,9.667918
2023-02-18T07:58:59.271Z,9.667904
2023-02-18T07:59:59.259Z,9.667911
2023-02-18T08:00:59.271Z,9.667956
2023-02-18T08:01:59.291Z,9.667983
2023-02-18T08:02:59.293Z,9.667965
2023-02-18T08:03:59.266Z,9.667990
2023-02-18T08:04:59.287Z,9.668008
2023-02-18T08:05:59.226Z,9.667978
2023-02-18T08:06:59.209Z,9.667924
2023-02-18T08:07:59.199Z,9.667951
2023-02-18T08:08:59.282Z,9.667913
2023-02-18T08:09:59.205Z,9.667958
2023-02-18T08:11:01.049Z,9.667943
2023-02-18T08:11:59.206Z,9.667988
2023-02-18T08:12:59.155Z,9.667972
2023-02-18T08:13:59.154Z,9.667917
2023-02-18T08:14:59.170Z,9.667934
2023-02-18T08:15:59.162Z,9.667956
2023-02-18T08:16:59.203Z,9.667958
2023-02-18T08:17:59.149Z,9.667912
2023-02-18T08:18:59.133Z,9.667944
2023-02-18T08:19:59.111Z,9.667959
2023-02-18T08:21:00.108Z,9.667951
2023-02-18T08:21:59.099Z,9.667980
2023-02-18T08:22:59.088Z,9.667960
2023-02-18T08:23:59.103Z,9.668021
2023-02-18T08:24:59.106Z,9.667975
2023-02-18T08:25:59.119Z,9.667987
2023-02-18T08:27:01.077Z,9.667954
2023-02-18T08:28:00.063Z,9.667945
2023-02-18T08:28:59.050Z,9.667933
2023-02-18T08:29:59.090Z,9.667959
2023-02-18T08:30:59.103Z,9.667949
2023-02-18T08:31:59.090Z,9.667961
2023-02-18T08:32:59.018Z,9.667989
2023-02-18T08:33:59.022Z,9.667970
2023-02-18T08:34:59.000Z,9.667984
2023-02-18T08:35:59.008Z,9.667955
2023-02-18T08:36:58.984Z,9.667904
2023-02-18T08:37:58.962Z,9.667955
2023-02-18T08:38:59.594Z,9.667892
2023-02-18T08:39:58.991Z,9.667901
2023-02-18T08:40:58.972Z,9.667954
2023-02-18T08:41:59.000Z,9.667924
2023-02-18T08:42:59.994Z,9.667918
2023-02-18T08:43:58.932Z,9.667917
2023-02-18T08:44:58.934Z,9.667964
2023-02-18T08:45:58.949Z,9.667894
2023-02-18T08:46:58.909Z,9.668015
2023-02-18T08:48:18.755Z,9.667923
2023-02-18T08:48:59.931Z,9.667970
2023-02-18T08:49:58.897Z,9.668010
2023-02-18T08:50:58.899Z,9.667995
2023-02-18T08:51:58.890Z,9.667963
2023-02-18T08:52:58.852Z,9.667909
2023-02-18T08:53:58.851Z,9.667979
2023-02-18T08:54:58.845Z,9.667978
2023-02-18T08:55:58.861Z,9.667928
2023-02-18T08:56:58.861Z,9.667965
2023-02-18T08:57:58.854Z,9.667964
2023-02-18T08:58:58.818Z,9.667971
2023-02-18T08:59:58.826Z,9.667968
2023-02-18T09:00:58.825Z,9.668021
2023-02-18T09:01:58.794Z,9.668034
2023-02-18T09:02:58.841Z,9.668042
2023-02-18T09:03:58.820Z,9.667960
2023-02-18T09:04:58.761Z,9.667942
2023-02-18T09:05:58.766Z,9.667951
2023-02-18T09:06:58.764Z,9.667982
2023-02-18T09:07:58.782Z,9.667971
2023-02-18T09:08:58.768Z,9.668013
2023-02-18T09:09:58.721Z,9.668030
2023-02-18T09:10:59.755Z,9.668014
2023-02-18T09:11:58.749Z,9.668015
2023-02-18T09:12:58.760Z,9.668023
2023-02-18T09:13:58.738Z,9.667992
2023-02-18T09:14:58.693Z,9.667956
2023-02-18T09:15:58.737Z,9.667986
2023-02-18T09:16:58.710Z,9.667941
2023-02-18T09:17:58.662Z,9.667960
2023-02-18T09:18:58.726Z,9.667969
2023-02-18T09:19:58.658Z,9.668003
2023-02-18T09:20:58.644Z,9.668002
2023-02-18T09:22:00.720Z,9.668003
2023-02-18T09:22:59.656Z,9.667940
2023-02-18T09:23:58.674Z,9.667914
2023-02-18T09:24:58.636Z,9.667967
2023-02-18T09:25:58.623Z,9.667933
2023-02-18T09:26:58.591Z,9.667973
2023-02-18T09:27:59.257Z,9.667912
2023-02-18T09:28:58.586Z,9.667942
2023-02-18T09:29:58.667Z,9.667934
2023-02-18T09:30:58.655Z,9.667932
2023-02-18T09:31:58.588Z,9.667946
2023-02-18T09:32:58.608Z,9.667922
2023-02-18T09:33:58.549Z,9.667960
2023-02-18T09:34:58.542Z,9.667919
2023-02-18T09:35:58.565Z,9.667933
2023-02-18T09:36:58.528Z,9.667947
2023-02-18T09:37:58.533Z,9.667985
2023-02-18T09:38:58.601Z,9.667980
2023-02-18T09:39:59.256Z,9.667930
2023-02-18T09:40:58.509Z,9.667953
2023-02-18T09:41:58.489Z,9.667941
2023-02-18T09:42:58.461Z,9.667956
2023-02-18T09:43:58.459Z,9.667944
2023-02-18T09:44:58.446Z,9.667953
2023-02-18T09:45:58.495Z,9.667936
2023-02-18T09:46:58.517Z,9.667979
2023-02-18T09:47:58.426Z,9.667946
2023-02-18T09:48:58.415Z,9.667922
2023-02-18T09:49:58.419Z,9.667941
2023-02-18T09:50:58.403Z,9.667954
2023-02-18T09:51:58.408Z,9.667978
2023-02-18T09:52:58.423Z,9.667953
2023-02-18T09:53:58.373Z,9.667982
2023-02-18T09:54:58.364Z,9.667992
2023-02-18T09:55:58.358Z,9.667974
2023-02-18T09:56:58.366Z,9.667944
2023-02-18T09:57:58.372Z,9.667931
2023-02-18T09:58:58.338Z,9.667946
2023-02-18T09:59:58.363Z,9.667989
2023-02-18T10:00:58.335Z,9.667969
2023-02-18T10:01:58.367Z,9.667994
2023-02-18T10:02:58.343Z,9.667965
2023-02-18T10:03:58.315Z,9.667961
2023-02-18T10:04:58.312Z,9.667933
2023-02-18T10:05:58.351Z,9.667950
2023-02-18T10:06:58.333Z,9.667959
2023-02-18T10:07:58.289Z,9.667974
2023-02-18T10:08:58.279Z,9.667944
2023-02-18T10:09:58.311Z,9.667974
2023-02-18T10:10:58.291Z,9.667970
2023-02-18T10:11:58.292Z,9.667991
2023-02-18T10:12:58.227Z,9.667983
2023-02-18T10:13:58.230Z,9.667965
2023-02-18T10:14:58.257Z,9.668004
2023-02-18T10:15:58.280Z,9.667976
2023-02-18T10:16:58.234Z,9.667956
2023-02-18T10:17:58.230Z,9.668022
2023-02-18T10:18:58.232Z,9.668040
2023-02-18T10:19:58.204Z,9.668018
2023-02-18T10:20:58.339Z,9.667994
2023-02-18T10:21:58.204Z,9.667998
2023-02-18T10:22:58.185Z,9.668001
2023-02-18T10:23:58.267Z,9.667944
2023-02-18T10:24:59.220Z,9.667958
2023-02-18T10:25:58.297Z,9.667974
2023-02-18T10:26:58.133Z,9.668024
2023-02-18T10:27:58.206Z,9.668058
2023-02-18T10:28:58.111Z,9.668067
2023-02-18T10:29:58.162Z,9.668020
2023-02-18T10:30:58.223Z,9.668001
2023-02-18T10:31:58.194Z,9.668020
2023-02-18T10:32:58.123Z,9.667977
2023-02-18T10:33:58.159Z,9.668007
2023-02-18T10:35:00.256Z,9.668031
2023-02-18T10:35:59.077Z,9.668036
2023-02-18T10:36:58.057Z,9.668056
2023-02-18T10:37:58.071Z,9.668099
2023-02-18T10:38:58.083Z,9.668097
2023-02-18T10:39:58.059Z,9.668054
2023-02-18T10:40:59.888Z,9.668088
2023-02-18T10:41:59.031Z,9.668009
2023-02-18T10:42:58.071Z,9.668015
2023-02-18T10:43:57.994Z,9.668026
2023-02-18T10:44:58.003Z,9.668037
2023-02-18T10:45:58.009Z,9.668095
2023-02-18T10:46:58.015Z,9.668041
2023-02-18T10:47:58.023Z,9.668066
2023-02-18T10:48:57.983Z,9.668118
2023-02-18T10:49:57.968Z,9.668072
2023-02-18T10:50:57.956Z,9.668117
2023-02-18T10:51:58.000Z,9.668086
2023-02-18T10:52:57.983Z,9.668062
2023-02-18T10:53:58.050Z,9.668107
2023-02-18T10:54:57.933Z,9.668052
2023-02-18T10:55:57.941Z,9.668061
2023-02-18T10:56:57.929Z,9.668066
2023-02-18T10:57:57.881Z,9.668036
2023-02-18T10:58:57.872Z,9.668030
2023-02-18T10:59:58.001Z,9.668054
2023-02-18T11:00:57.883Z,9.668098
2023-02-18T11:01:57.943Z,9.668040
2023-02-18T11:02:57.858Z,9.668009
2023-02-18T11:03:57.846Z,9.668066
2023-02-18T11:04:57.890Z,9.668074
2023-02-18T11:05:57.864Z,9.668057
2023-02-18T11:06:57.941Z,9.668084
2023-02-18T11:07:57.811Z,9.668117
2023-02-18T11:08:57.810Z,9.668134
2023-02-18T11:09:57.823Z,9.668124
2023-02-18T11:10:57.791Z,9.668095
2023-02-18T11:12:07.785Z,9.668078
2023-02-18T11:12:59.770Z,9.668083
2023-02-18T11:13:57.766Z,9.668069
2023-02-18T11:14:57.792Z,9.668079
2023-02-18T11:15:57.865Z,9.668059
2023-02-18T11:16:57.737Z,9.668080
2023-02-18T11:17:57.733Z,9.668046
2023-02-18T11:18:57.742Z,9.668066
2023-02-18T11:19:57.745Z,9.668101
2023-02-18T11:20:57.716Z,9.668072
2023-02-18T11:21:57.702Z,9.668077
2023-02-18T11:22:57.714Z,9.668053
2023-02-18T11:23:57.825Z,9.668015
2023-02-18T11:24:57.718Z,9.667982
2023-02-18T11:25:57.702Z,9.668019
2023-02-18T11:26:57.663Z,9.668038
2023-02-18T11:27:57.645Z,9.668019
2023-02-18T11:28:57.672Z,9.668006
2023-02-18T11:29:57.668Z,9.668031
2023-02-18T11:30:57.696Z,9.668067
2023-02-18T11:31:57.673Z,9.668075
2023-02-18T11:32:57.625Z,9.668055
2023-02-18T11:33:57.630Z,9.668071
2023-02-18T11:34:57.629Z,9.668057
2023-02-18T11:35:57.605Z,9.668078
2023-02-18T11:36:58.285Z,9.668098
2023-02-18T11:37:57.574Z,9.668122
2023-02-18T11:38:57.591Z,9.668111
2023-02-18T11:39:57.560Z,9.668074
2023-02-18T11:40:57.585Z,9.668071
2023-02-18T11:41:57.575Z,9.668056
2023-02-18T11:42:57.527Z,9.668026
2023-02-18T11:43:57.564Z,9.668027
2023-02-18T11:44:57.530Z,9.668053
2023-02-18T11:45:57.506Z,9.668121
2023-02-18T11:46:57.547Z,9.668103
2023-02-18T11:47:57.592Z,9.668068
2023-02-18T11:48:57.538Z,9.668044
2023-02-18T11:49:57.501Z,9.668058
2023-02-18T11:50:57.484Z,9.668063
2023-02-18T11:51:57.499Z,9.668041
2023-02-18T11:52:57.514Z,9.668054
2023-02-18T11:53:57.512Z,9.668059
2023-02-18T11:54:58.404Z,9.668054
2023-02-18T11:55:57.453Z,9.668105
2023-02-18T11:56:57.474Z,9.668121
2023-02-18T11:57:57.484Z,9.668113
2023-02-18T11:58:57.426Z,9.668107
2023-02-18T11:59:57.430Z,9.668073
2023-02-18T12:00:57.428Z,9.668047
2023-02-18T12:01:58.357Z,9.668061
2023-02-18T12:02:57.395Z,9.668078
2023-02-18T12:03:57.392Z,9.668049
2023-02-18T12:04:58.391Z,9.668040
2023-02-18T12:05:57.388Z,9.668072
2023-02-18T12:06:57.359Z,9.668039
2023-02-18T12:07:58.191Z,9.668053
2023-02-18T12:08:57.359Z,9.668059
2023-02-18T12:09:58.224Z,9.668064
2023-02-18T12:10:57.356Z,9.668039
2023-02-18T12:11:59.854Z,9.668098
2023-02-18T12:12:58.311Z,9.668078